Record high temperature 34.3°C Record low temperature -12.0°C Record high gust 63.0 mph Record high average 49.5 mph Record daily rain 60.3 mm Record low windchill -17.0°C Record high barometer 1045.3 hPa Record low barometer 964.0 hPa
Daily high pressure 999.6 mb Daily low pressure 983.3 mb Daily low windchill -1.0°C Daily high heat index 9.9°C Daily high gust speed 49.5 mph WNW Daily high average speed 49.5 mph WSW
Rosliston Weather Station, South Derbyshire
LAST READING AT TIME: 2:15 PM DATE: 23 February 2017, time of next update: 2:30 pm
Current Weather/Dry Current Temperature 6.2°C (43.2°F), Apparent temp -1.4°C
Maximum Temperature (since midnight)9.9°C at: 1:07 AM Minimum Temperature (since midnight)5.7°C at: 12:10 PM
Average windspeed (ten minute)26.8 mph Wind Direction (ten minute)W (281°)
Windchill Temperature 1.1°C Maximum Gust (last hour)42.9 mph at: 1:23PM
Maximum Gust (since midnight)49.5 mph at: 12:46 PM Maximum 1 minute average (since midnight)49.5 mph at: 12:46 PM
Rainfall (last hour)0.0 mm Rainfall (since midnight)0.0 mm (0.00 in.)---
Rainfall This month 0.0 mm (0.00 in.) Rainfall To date this year 0.0 mm (0.00 in.)
Maximum rain per minute (last hour)0.0 mm/min Maximum rain per hour (last 6 hours)0.0 mm/hour
Yesterdays rainfall 0.0 mm DewPoint 3.0°C (Wet Bulb :4.9°C )
Humidity 80 %, Humidex 4.9°C Barometer corrected to msl990.2 mb
Pressure change +1.9 mb (last hour) Trend (last hour)RISING SLOWLY
Pressure change (last 12 hours)-6.5 mb Pressure change (last 6 hours)+4.9 mb


Click here for the last 24 hour graph
Click here for the last 48 hour graph
Click here for the last 72 hour graph
Click here for the month to date graph


Weather report/warning/Metars

Honiara / Henderson, Solomon Islands (AGGH) 09-25S 160-03E 9M
Aug 03, 2016 - 09:00 AM EDT / 2016.08.03 1300 UTC
Wind: from the SSE (160 degrees) at 5 MPH (4 KT):0
Sky conditions: mostly clear
Temperature: 75 F (24 C)
Dew Point: 73 F (23 C)
Relative Humidity: 94%
Pressure (altimeter): 29.83 in. Hg (1010 hPa)
ob: AGGH 031300Z 16004KT 35KM FEW016 24/23 Q1010
cycle: 13
East Midlands, United Kingdom (EGNX) 52-50N 001-20W
Aug 01, 2016 - 11:50 PM EDT / 2016.08.02 0350 UTC
Wind: from the SE (130 degrees) at 7 MPH (6 KT):0
Visibility: 2 mile(s):0
Sky conditions: mostly cloudy
Weather: mist
Temperature: 57 F (14 C)
Dew Point: 57 F (14 C)
Relative Humidity: 100%
Pressure (altimeter): 29.77 in. Hg (1008 hPa)
ob: EGNX 020350Z 13006KT 3500 BR BKN002 14/14 Q1008
cycle: 4


Sunset at:
6:16 pm

Moonrise at:
3:25 am 23/02/17

Moonset at:
3:48 pm 23/02/17

First Quarter  4 February 2017
Full moon  11 February 2017
Last Quarter18 February 2017
New moon 26 February 2017
Moon age: 25 days,22 hours,56 minutes,14%
Hours of possible daylight today was 12:07